createdAt,value
2019-04-16T00:01:50.542Z,22.05
2019-04-16T00:04:33.255Z,20.95
2019-04-16T00:07:06.624Z,20.88
2019-04-16T00:12:24.997Z,20.17
2019-04-16T00:14:55.431Z,20.45
2019-04-16T00:17:44.362Z,19.62
2019-04-16T00:20:12.790Z,20.72
2019-04-16T00:22:43.186Z,19.87
2019-04-16T00:25:13.217Z,21.12
2019-04-16T00:27:42.092Z,19.82
2019-04-16T00:30:13.606Z,19.80
2019-04-16T00:32:42.979Z,19.05
2019-04-16T00:35:15.374Z,19.35
2019-04-16T00:37:42.468Z,19.52
2019-04-16T00:40:11.648Z,19.40
2019-04-16T00:42:40.679Z,19.70
2019-04-16T00:45:09.633Z,18.65
2019-04-16T00:47:40.521Z,18.62
2019-04-16T00:50:09.428Z,19.55
2019-04-16T00:52:38.268Z,21.55
2019-04-16T00:55:07.487Z,19.92
2019-04-16T00:57:55.408Z,19.48
2019-04-16T01:00:24.288Z,19.50
2019-04-16T01:02:53.215Z,19.27
2019-04-16T01:05:22.157Z,20.23
2019-04-16T01:07:52.016Z,19.55
2019-04-16T01:10:20.862Z,19.30
2019-04-16T01:12:49.788Z,19.17
2019-04-16T01:15:18.719Z,18.77
2019-04-16T01:17:48.659Z,18.42
2019-04-16T01:20:18.021Z,19.45
2019-04-16T01:22:47.474Z,19.92
2019-04-16T01:25:16.581Z,19.45
2019-04-16T01:27:47.025Z,19.35
2019-04-16T01:30:17.527Z,18.77
2019-04-16T01:32:47.995Z,19.35
2019-04-16T01:35:19.026Z,19.42
2019-04-16T01:38:07.499Z,19.27
2019-04-16T01:40:38.061Z,19.45
2019-04-16T01:43:06.946Z,19.62
2019-04-16T01:45:35.810Z,19.10
2019-04-16T01:48:07.846Z,18.90
2019-04-16T01:50:36.248Z,18.60
2019-04-16T01:53:05.205Z,19.92
2019-04-16T01:55:35.258Z,19.35
2019-04-16T01:58:04.234Z,19.62
2019-04-16T02:00:33.140Z,19.17
2019-04-16T02:03:03.083Z,18.90
2019-04-16T02:05:32.529Z,18.65
2019-04-16T02:08:06.042Z,18.57
2019-04-16T02:10:35.472Z,19.37
2019-04-16T02:13:05.693Z,18.65
2019-04-16T02:15:36.140Z,19.42
2019-04-16T02:18:29.493Z,19.25
2019-04-16T02:21:00.397Z,19.57
2019-04-16T02:23:29.323Z,19.00
2019-04-16T02:26:02.476Z,18.98
2019-04-16T02:28:31.317Z,18.95
2019-04-16T02:31:00.259Z,20.48
2019-04-16T02:33:29.500Z,19.45
2019-04-16T02:36:04.173Z,19.02
2019-04-16T02:38:33.054Z,18.98
2019-04-16T02:41:02.220Z,18.70
2019-04-16T02:43:39.436Z,19.62
2019-04-16T02:46:07.748Z,19.02
2019-04-16T02:51:22.490Z,18.48
2019-04-16T02:54:00.035Z,19.17
2019-04-16T02:56:40.611Z,19.30
2019-04-16T02:59:13.366Z,19.75
2019-04-16T03:01:59.242Z,17.77
2019-04-16T03:04:35.374Z,17.62
2019-04-16T03:07:06.328Z,18.50
2019-04-16T03:09:39.875Z,18.98
2019-04-16T03:12:07.158Z,19.10
2019-04-16T03:14:36.085Z,19.60
2019-04-16T03:20:30.146Z,18.95
2019-04-16T03:22:59.093Z,18.02
2019-04-16T03:25:28.029Z,18.90
2019-04-16T03:27:57.891Z,17.77
2019-04-16T03:30:28.209Z,18.27
2019-04-16T03:32:58.781Z,20.02
2019-04-16T03:35:27.737Z,18.87
2019-04-16T03:38:16.826Z,19.67
2019-04-16T03:40:45.750Z,18.80
2019-04-16T03:43:17.471Z,18.00
2019-04-16T03:45:46.386Z,18.32
2019-04-16T03:48:15.536Z,18.77
2019-04-16T03:50:44.575Z,18.60
2019-04-16T03:53:17.490Z,18.90
2019-04-16T03:55:46.451Z,19.05
2019-04-16T03:58:15.367Z,19.07
2019-04-16T04:00:45.077Z,18.60
2019-04-16T04:03:14.027Z,19.02
2019-04-16T04:05:44.461Z,19.20
2019-04-16T04:08:16.398Z,19.65
2019-04-16T04:10:43.778Z,18.92
2019-04-16T04:13:17.296Z,20.75
2019-04-16T04:15:43.098Z,20.23
2019-04-16T04:18:12.903Z,19.30
2019-04-16T04:20:43.200Z,20.08
2019-04-16T04:23:12.134Z,19.32
2019-04-16T04:25:42.215Z,20.15
2019-04-16T04:28:11.059Z,19.30
2019-04-16T04:30:41.375Z,19.98
2019-04-16T04:33:11.851Z,20.50
2019-04-16T04:35:40.660Z,19.90
2019-04-16T04:38:27.700Z,19.00
2019-04-16T04:40:59.637Z,18.95
2019-04-16T04:43:29.370Z,19.98
2019-04-16T04:45:57.639Z,18.85
2019-04-16T04:48:27.720Z,19.12
2019-04-16T04:50:56.713Z,18.62
2019-04-16T04:53:26.345Z,19.45
2019-04-16T04:55:57.821Z,20.90
2019-04-16T04:58:28.069Z,19.52
2019-04-16T05:00:56.928Z,19.27
2019-04-16T05:03:27.407Z,19.55
2019-04-16T05:06:00.923Z,18.12
2019-04-16T05:08:29.798Z,18.17
2019-04-16T05:11:02.653Z,18.17
2019-04-16T05:13:29.300Z,18.80
2019-04-16T05:16:36.216Z,18.12
2019-04-16T05:19:05.039Z,18.40
2019-04-16T05:21:33.913Z,18.57
2019-04-16T05:24:02.793Z,18.25
2019-04-16T05:26:36.570Z,18.23
2019-04-16T05:29:17.033Z,18.37
2019-04-16T05:31:43.782Z,18.50
2019-04-16T05:34:12.896Z,19.07
2019-04-16T05:36:59.339Z,19.05
2019-04-16T05:39:28.613Z,18.27
2019-04-16T05:41:58.005Z,18.67
2019-04-16T05:44:26.832Z,17.20
2019-04-16T05:46:55.653Z,18.02
2019-04-16T05:49:26.010Z,18.77
2019-04-16T05:51:55.131Z,17.92
2019-04-16T05:54:44.392Z,16.87
2019-04-16T05:57:19.463Z,18.10
2019-04-16T05:59:48.344Z,17.32
2019-04-16T06:02:21.546Z,16.95
2019-04-16T06:04:50.398Z,18.23
2019-04-16T06:07:19.280Z,17.32
2019-04-16T06:09:48.678Z,17.52
2019-04-16T06:12:17.484Z,18.17
2019-04-16T06:14:49.544Z,19.02
2019-04-16T06:17:38.150Z,17.92
2019-04-16T06:20:11.267Z,17.10
2019-04-16T06:22:50.834Z,16.67
2019-04-16T06:25:27.256Z,17.15
2019-04-16T06:28:00.507Z,17.25
2019-04-16T06:33:05.190Z,17.40
2019-04-16T06:35:54.150Z,17.17
2019-04-16T06:38:42.960Z,17.60
2019-04-16T06:41:13.380Z,17.60
2019-04-16T06:43:46.713Z,17.10
2019-04-16T06:49:21.084Z,15.83
2019-04-16T06:52:12.479Z,17.27
2019-04-16T06:55:00.516Z,16.37
2019-04-16T06:57:33.144Z,16.62
2019-04-16T07:00:07.308Z,15.72
2019-04-16T07:03:02.222Z,16.45
2019-04-16T07:05:34.796Z,17.37
2019-04-16T07:08:21.153Z,17.10
2019-04-16T07:10:57.405Z,16.85
2019-04-16T07:13:26.228Z,17.02
2019-04-16T07:15:56.940Z,17.32
2019-04-16T07:18:25.544Z,16.45
2019-04-16T07:20:54.427Z,16.95
2019-04-16T07:23:24.782Z,16.27
2019-04-16T07:25:53.802Z,17.12
2019-04-16T07:28:39.523Z,16.27
2019-04-16T07:31:16.559Z,16.25
2019-04-16T07:33:53.599Z,16.48
2019-04-16T07:36:29.642Z,17.92
2019-04-16T07:39:28.973Z,17.37
2019-04-16T07:42:10.721Z,16.37
2019-04-16T07:44:42.518Z,16.27
2019-04-16T07:47:29.570Z,16.12
2019-04-16T07:50:05.725Z,16.80
2019-04-16T07:52:52.209Z,17.23
2019-04-16T07:55:28.401Z,17.02
2019-04-16T07:57:57.305Z,15.75
2019-04-16T08:00:26.155Z,17.00
2019-04-16T08:02:54.927Z,17.07
2019-04-16T08:05:23.739Z,16.87
2019-04-16T08:07:52.881Z,17.27
2019-04-16T08:10:22.588Z,16.70
2019-04-16T08:12:52.984Z,16.48
2019-04-16T08:15:21.779Z,17.42
2019-04-16T08:17:50.682Z,16.90
2019-04-16T08:20:21.019Z,16.97
2019-04-16T08:22:51.655Z,16.80
2019-04-16T08:25:24.585Z,16.67
2019-04-16T08:27:54.095Z,16.10
2019-04-16T08:30:23.721Z,16.57
2019-04-16T08:32:52.548Z,17.00
2019-04-16T08:35:21.440Z,16.97
2019-04-16T08:37:50.236Z,16.62
2019-04-16T08:40:19.056Z,17.00
2019-04-16T08:42:47.965Z,16.15
2019-04-16T08:45:16.815Z,17.98
2019-04-16T08:47:46.141Z,17.37
2019-04-16T08:50:15.106Z,17.60
2019-04-16T08:52:43.878Z,16.82
2019-04-16T08:55:12.877Z,17.27
2019-04-16T08:57:41.730Z,16.97
2019-04-16T09:00:15.152Z,17.37
2019-04-16T09:02:42.724Z,17.50
2019-04-16T09:05:11.875Z,18.27
2019-04-16T09:07:40.901Z,16.42
2019-04-16T09:10:19.311Z,16.80
2019-04-16T09:13:02.004Z,16.67
2019-04-16T09:15:18.989Z,17.02
2019-04-16T09:17:49.638Z,19.62
2019-04-16T09:20:22.934Z,17.25
2019-04-16T09:22:53.645Z,17.37
2019-04-16T09:25:31.949Z,17.65
2019-04-16T09:28:24.863Z,17.90
2019-04-16T09:30:59.972Z,17.23
2019-04-16T09:33:37.299Z,17.17
2019-04-16T09:36:10.234Z,16.90
2019-04-16T09:38:45.205Z,17.12
2019-04-16T09:41:22.017Z,16.97
2019-04-16T09:43:53.607Z,17.75
2019-04-16T09:46:48.982Z,16.82
2019-04-16T09:48:55.070Z,16.60
2019-04-16T09:51:25.889Z,16.93
2019-04-16T09:53:54.391Z,16.73
2019-04-16T09:56:28.923Z,17.57
2019-04-16T09:59:01.072Z,17.55
2019-04-16T10:01:31.479Z,17.12
2019-04-16T10:04:00.667Z,16.40
2019-04-16T10:06:29.443Z,17.02
2019-04-16T10:08:58.275Z,17.10
2019-04-16T10:11:27.072Z,18.65
2019-04-16T10:13:55.994Z,17.10
2019-04-16T10:16:26.415Z,17.32
2019-04-16T10:18:55.180Z,18.42
2019-04-16T10:21:24.158Z,17.92
2019-04-16T10:24:00.776Z,17.37
2019-04-16T10:26:29.648Z,17.23
2019-04-16T10:29:00.069Z,16.45
2019-04-16T10:31:29.050Z,17.52
2019-04-16T10:33:57.873Z,16.73
2019-04-16T10:36:26.674Z,16.05
2019-04-16T10:39:02.794Z,17.60
2019-04-16T10:41:36.111Z,17.67
2019-04-16T10:44:06.604Z,16.93
2019-04-16T10:46:47.822Z,17.65
2019-04-16T10:49:19.795Z,16.60
2019-04-16T10:52:06.550Z,17.27
2019-04-16T10:54:48.829Z,17.67
2019-04-16T10:57:31.010Z,17.65
2019-04-16T11:00:13.255Z,17.30
2019-04-16T11:02:43.802Z,18.32
2019-04-16T11:05:32.841Z,17.25
2019-04-16T11:08:04.208Z,17.45
2019-04-16T11:10:33.841Z,18.23
2019-04-16T11:13:04.274Z,19.42
2019-04-16T11:15:33.135Z,16.27
2019-04-16T11:18:02.041Z,15.55
2019-04-16T11:20:30.960Z,17.55
2019-04-16T11:22:59.853Z,16.25
2019-04-16T11:25:28.657Z,15.40
2019-04-16T11:27:57.450Z,15.03
2019-04-16T11:30:36.692Z,14.93
2019-04-16T11:33:05.957Z,13.85
2019-04-16T11:35:34.891Z,13.78
2019-04-16T11:38:04.233Z,14.35
2019-04-16T11:40:32.993Z,15.03
2019-04-16T11:43:01.805Z,13.58
2019-04-16T11:45:30.731Z,12.15
2019-04-16T11:47:59.521Z,13.93
2019-04-16T11:50:28.394Z,13.85
2019-04-16T11:52:58.530Z,13.00
2019-04-16T11:55:27.624Z,13.35
2019-04-16T11:57:56.519Z,14.58
2019-04-16T12:00:42.023Z,14.05
2019-04-16T12:03:13.683Z,13.48
2019-04-16T12:05:44.112Z,13.00
2019-04-16T12:08:14.542Z,13.90
2019-04-16T12:10:45.029Z,14.03
2019-04-16T12:13:17.945Z,13.50
2019-04-16T12:15:48.453Z,13.32
2019-04-16T12:18:18.892Z,12.25
2019-04-16T12:20:49.385Z,11.88
2019-04-16T12:23:19.780Z,13.08
2019-04-16T12:26:09.071Z,13.70
2019-04-16T12:28:47.420Z,12.10
2019-04-16T12:31:17.909Z,11.35
2019-04-16T12:33:51.051Z,11.93
2019-04-16T12:38:56.660Z,11.83
2019-04-16T12:41:36.021Z,12.10
2019-04-16T12:44:24.467Z,11.55
2019-04-16T12:47:09.993Z,11.80
2019-04-16T12:49:56.898Z,14.28
2019-04-16T12:52:43.725Z,11.53
2019-04-16T12:55:23.686Z,11.78
2019-04-16T12:58:11.959Z,10.50
2019-04-16T13:00:45.023Z,11.25
2019-04-16T13:03:30.416Z,12.10
2019-04-16T13:06:02.486Z,11.55
2019-04-16T13:08:33.320Z,11.70
2019-04-16T13:11:09.548Z,11.00
2019-04-16T13:13:42.960Z,9.98
2019-04-16T13:16:13.367Z,10.85
2019-04-16T13:18:48.327Z,10.60
2019-04-16T13:21:22.536Z,11.70
2019-04-16T13:23:53.045Z,10.18
2019-04-16T13:26:43.636Z,11.20
2019-04-16T13:29:16.832Z,10.32
2019-04-16T13:31:44.569Z,10.63
2019-04-16T13:34:18.368Z,9.65
2019-04-16T13:36:43.911Z,11.15
2019-04-16T13:39:20.574Z,9.78
2019-04-16T13:41:49.459Z,10.25
2019-04-16T13:44:19.869Z,9.95
2019-04-16T13:46:48.741Z,10.72
2019-04-16T13:49:24.952Z,10.10
2019-04-16T13:51:57.542Z,10.15
2019-04-16T13:54:39.968Z,10.55
2019-04-16T13:57:10.468Z,10.72
2019-04-16T13:59:41.041Z,9.73
2019-04-16T14:02:28.080Z,37.53
2019-04-16T14:05:00.022Z,11.85
2019-04-16T14:07:29.621Z,11.20
2019-04-16T14:09:59.880Z,10.23
2019-04-16T14:12:41.951Z,11.48
2019-04-16T14:14:59.461Z,10.75
2019-04-16T14:17:29.514Z,12.07
2019-04-16T14:19:58.715Z,13.05
2019-04-16T14:22:27.628Z,12.58
2019-04-16T14:24:59.643Z,15.93
2019-04-16T14:27:28.473Z,15.08
2019-04-16T14:29:59.200Z,14.35
2019-04-16T14:32:27.791Z,14.60
2019-04-16T14:34:58.901Z,15.95
2019-04-16T14:37:28.943Z,17.23
2019-04-16T14:40:08.092Z,16.23
2019-04-16T14:42:36.941Z,16.45
2019-04-16T14:45:11.976Z,15.50
2019-04-16T14:47:40.882Z,16.15
2019-04-16T14:50:13.168Z,16.23
2019-04-16T14:52:40.403Z,16.30
2019-04-16T14:55:16.279Z,16.02
2019-04-16T14:58:02.978Z,17.50
2019-04-16T15:00:39.494Z,16.20
2019-04-16T15:03:33.718Z,16.95
2019-04-16T15:06:13.112Z,16.40
2019-04-16T15:09:01.602Z,16.80
2019-04-16T15:11:48.210Z,15.83
2019-04-16T15:14:27.527Z,15.00
2019-04-16T15:17:14.445Z,16.42
2019-04-16T15:19:47.687Z,16.45
2019-04-16T15:25:02.356Z,16.42
2019-04-16T15:30:29.266Z,16.50
2019-04-16T15:33:16.277Z,17.27
2019-04-16T15:35:48.203Z,17.35
2019-04-16T15:38:18.774Z,16.25
2019-04-16T15:41:13.093Z,16.57
2019-04-16T15:44:08.446Z,16.02
2019-04-16T15:46:55.213Z,16.67
2019-04-16T15:49:42.214Z,19.32
2019-04-16T15:52:31.121Z,17.20
2019-04-16T15:55:09.939Z,17.87
2019-04-16T15:57:57.806Z,18.07
2019-04-16T16:00:46.052Z,17.90
2019-04-16T16:03:33.185Z,17.85
2019-04-16T16:06:03.580Z,17.40
2019-04-16T16:08:45.992Z,17.52
2019-04-16T16:11:32.746Z,17.00
2019-04-16T16:14:01.910Z,15.98
2019-04-16T16:16:41.425Z,15.30
2019-04-16T16:19:01.268Z,15.25
2019-04-16T16:21:30.041Z,12.68
2019-04-16T16:23:58.863Z,12.85
2019-04-16T16:26:27.741Z,13.48
2019-04-16T16:28:56.501Z,13.20
2019-04-16T16:31:25.357Z,12.88
2019-04-16T16:33:54.379Z,12.58
2019-04-16T16:36:24.316Z,12.98
2019-04-16T16:38:53.084Z,12.47
2019-04-16T16:41:21.839Z,12.45
2019-04-16T16:43:50.645Z,12.98
2019-04-16T16:46:37.581Z,11.65
2019-04-16T16:49:06.451Z,11.60
2019-04-16T16:51:35.286Z,11.35
2019-04-16T16:54:05.740Z,10.70
2019-04-16T16:56:37.210Z,11.10
2019-04-16T16:59:23.883Z,11.75
2019-04-16T17:02:00.265Z,10.50
2019-04-16T17:04:30.722Z,11.25
2019-04-16T17:07:00.912Z,10.58
2019-04-16T17:09:31.242Z,11.25
2019-04-16T17:12:00.164Z,9.88
2019-04-16T17:14:28.976Z,9.98
2019-04-16T17:17:12.444Z,9.38
2019-04-16T17:19:28.327Z,12.78
2019-04-16T17:21:57.182Z,11.68
2019-04-16T17:24:26.061Z,12.98
2019-04-16T17:26:54.940Z,11.63
2019-04-16T17:29:23.828Z,10.80
2019-04-16T17:31:52.666Z,10.93
2019-04-16T17:34:21.648Z,10.90
2019-04-16T17:36:50.441Z,11.20
2019-04-16T17:39:32.957Z,11.08
2019-04-16T17:42:06.058Z,11.28
2019-04-16T17:44:36.511Z,11.05
2019-04-16T17:47:10.865Z,10.70
2019-04-16T17:49:41.296Z,11.18
2019-04-16T17:52:11.700Z,10.28
2019-04-16T17:55:00.127Z,10.53
2019-04-16T17:57:33.319Z,9.58
2019-04-16T18:00:04.782Z,9.88
2019-04-16T18:02:52.111Z,10.03
2019-04-16T18:05:28.652Z,10.63
2019-04-16T18:08:01.840Z,9.63
2019-04-16T18:10:34.933Z,10.55
2019-04-16T18:13:07.238Z,9.95
2019-04-16T18:15:52.497Z,9.80
2019-04-16T18:18:36.672Z,10.48
2019-04-16T18:21:23.835Z,10.20
2019-04-16T18:24:00.181Z,8.90
2019-04-16T18:26:36.451Z,9.10
2019-04-16T18:29:06.884Z,9.28
2019-04-16T18:31:37.313Z,9.80
2019-04-16T18:34:24.067Z,9.38
2019-04-16T18:37:00.681Z,10.00
2019-04-16T18:39:43.561Z,9.58
2019-04-16T18:42:19.660Z,9.75
2019-04-16T18:45:02.114Z,8.98
2019-04-16T18:47:32.566Z,9.48
2019-04-16T18:50:06.052Z,7.83
2019-04-16T18:52:36.660Z,8.10
2019-04-16T18:55:07.330Z,9.15
2019-04-16T18:57:38.356Z,9.25
2019-04-16T19:00:09.983Z,7.55
2019-04-16T19:02:41.824Z,9.38
2019-04-16T19:05:10.799Z,7.50
2019-04-16T19:07:39.659Z,7.15
2019-04-16T19:10:08.589Z,7.83
2019-04-16T19:12:37.344Z,6.42
2019-04-16T19:15:08.161Z,6.50
2019-04-16T19:17:36.939Z,6.33
2019-04-16T19:20:06.427Z,5.75
2019-04-16T19:22:35.219Z,6.28
2019-04-16T19:25:08.337Z,5.70
2019-04-16T19:27:35.091Z,5.60
2019-04-16T19:30:04.263Z,4.70
2019-04-16T19:32:35.036Z,5.15
2019-04-16T19:35:10.500Z,4.85
2019-04-16T19:37:34.061Z,4.80
2019-04-16T19:40:03.001Z,4.70
2019-04-16T19:42:31.830Z,4.05
2019-04-16T19:45:00.659Z,4.28
2019-04-16T19:47:29.519Z,4.20
2019-04-16T19:49:58.287Z,4.37
2019-04-16T19:52:27.171Z,3.92
2019-04-16T19:54:55.921Z,4.08
2019-04-16T19:57:24.848Z,4.22
2019-04-16T19:59:53.656Z,4.00
2019-04-16T20:02:22.539Z,5.08
2019-04-16T20:04:51.403Z,3.40
2019-04-16T20:07:20.232Z,4.15
2019-04-16T20:09:49.020Z,3.75
2019-04-16T20:12:17.840Z,3.85
2019-04-16T20:14:46.689Z,3.50
2019-04-16T20:17:15.663Z,3.60
2019-04-16T20:19:48.950Z,6.37
2019-04-16T20:24:45.846Z,3.02
2019-04-16T20:27:14.608Z,4.10
2019-04-16T20:29:43.440Z,3.40
2019-04-16T20:32:12.305Z,3.10
2019-04-16T20:34:42.350Z,3.58
2019-04-16T20:37:11.619Z,3.42
2019-04-16T20:39:40.911Z,3.87
2019-04-16T20:42:09.887Z,3.75
2019-04-16T20:44:38.733Z,2.83
2019-04-16T20:47:08.605Z,2.62
2019-04-16T20:49:37.883Z,2.70
2019-04-16T20:52:06.646Z,2.90
2019-04-16T20:54:36.410Z,2.60
2019-04-16T20:57:07.278Z,2.80
2019-04-16T20:59:39.211Z,3.27
2019-04-16T21:02:10.945Z,3.95
2019-04-16T21:04:39.751Z,2.70
2019-04-16T21:07:14.296Z,2.80
2019-04-16T21:09:39.039Z,3.72
2019-04-16T21:12:12.597Z,3.33
2019-04-16T21:14:38.231Z,3.20
2019-04-16T21:17:07.752Z,3.12
2019-04-16T21:19:47.857Z,5.50
2019-04-16T21:22:18.201Z,3.90
2019-04-16T21:24:47.397Z,3.20
2019-04-16T21:27:16.148Z,3.90
2019-04-16T21:29:45.033Z,3.67
2019-04-16T21:32:22.232Z,2.83
2019-04-16T21:35:00.807Z,3.30
2019-04-16T21:37:34.276Z,3.50
2019-04-16T21:40:07.707Z,3.58
2019-04-16T21:42:36.473Z,3.72
2019-04-16T21:45:06.821Z,3.30
2019-04-16T21:47:37.617Z,4.25
2019-04-16T21:50:07.843Z,4.90
2019-04-16T21:52:36.640Z,4.25
2019-04-16T21:55:07.204Z,3.75
2019-04-16T21:57:36.043Z,3.77
2019-04-16T22:00:09.352Z,3.85
2019-04-16T22:05:08.929Z,4.17
2019-04-16T22:07:37.943Z,4.30
2019-04-16T22:10:06.961Z,3.58
2019-04-16T22:12:35.795Z,3.87
2019-04-16T22:15:06.066Z,4.12
2019-04-16T22:17:35.789Z,4.62
2019-04-16T22:20:07.022Z,5.05
2019-04-16T22:22:35.792Z,5.17
2019-04-16T22:25:06.787Z,5.90
2019-04-16T22:27:36.798Z,5.15
2019-04-16T22:30:07.410Z,5.17
2019-04-16T22:32:36.191Z,5.85
2019-04-16T22:35:06.499Z,6.55
2019-04-16T22:37:35.437Z,7.62
2019-04-16T22:40:22.547Z,7.50
2019-04-16T22:42:51.495Z,7.58
2019-04-16T22:45:37.176Z,7.65
2019-04-16T22:48:06.128Z,7.47
2019-04-16T22:50:37.822Z,8.23
2019-04-16T22:53:05.616Z,8.73
2019-04-16T22:55:36.169Z,10.03
2019-04-16T22:58:05.401Z,9.23
2019-04-16T23:00:36.020Z,9.88
2019-04-16T23:03:04.932Z,10.70
2019-04-16T23:05:33.707Z,11.15
2019-04-16T23:08:02.870Z,11.08
2019-04-16T23:10:31.838Z,11.45
2019-04-16T23:13:03.343Z,12.25
2019-04-16T23:15:33.045Z,12.10
2019-04-16T23:18:22.059Z,13.13
2019-04-16T23:20:50.867Z,13.28
2019-04-16T23:23:22.611Z,12.25
2019-04-16T23:25:51.380Z,13.53
2019-04-16T23:28:20.149Z,13.40
2019-04-16T23:30:51.269Z,14.98
2019-04-16T23:33:19.510Z,14.75
2019-04-16T23:35:48.384Z,14.10
2019-04-16T23:38:18.695Z,12.75
2019-04-16T23:40:47.604Z,14.68
2019-04-16T23:43:21.921Z,16.35
2019-04-16T23:46:09.377Z,17.07
2019-04-16T23:48:39.800Z,16.45
2019-04-16T23:51:10.181Z,19.10
2019-04-16T23:53:46.404Z,18.95
2019-04-16T23:56:25.739Z,19.57
2019-04-16T23:59:08.637Z,19.30
